Bloomfield, Iowa
Current Conditions -  °F | °C
As of 8:53 PM on Sunday 21 Dec 2014 (Local Time) from KOTM Reporting Station
Overcast Overcast  
Wind Chill: 32°   Ceiling: 1200
Heat Index: 40°   Visibility: 9mi
Dew Point: 38°   Wind: 14mph
Humidity: 93%   Direction: 160°SSE
Pressure: 29.84"   Gusts: NA
Location:  40.75°N, 92.41°W
Report Text: KOTM 220253Z AUTO 16012KT 9SM OVC012 04/03 A2984 RMK AO2 RAB0156E25 SLP111 P0000 60002 T00440033 58011
Loading
Personal Weather Stations






























Interactive Weather Map New forecast layout! Learn more

10-Day Weather Forecast

Advertisements
Track Severe Weather on mobile